Time,TemperatureF,DewpointF,PressureIn,WindDirection,WindDirectionDegrees,WindSpeedMPH,WindSpeedGustMPH,Humidity,HourlyPrecipIn,Conditions,Clouds,dailyrainin,SoftwareType,DateUTC
2013-09-03 00:01:00,59.7,50.3,29.96,WNW,291,7.2,15.2,71,0.00,,---,0.00,VWS V14.01,2013-09-03 04:01:00,
2013-09-03 00:07:00,59.4,50.7,29.96,NW,320,12.5,16.1,73,0.00,,---,0.00,VWS V14.01,2013-09-03 04:07:00,
2013-09-03 00:12:00,58.8,50.6,29.96,North,360,5.4,10.7,74,0.00,,---,0.00,VWS V14.01,2013-09-03 04:12:00,
2013-09-03 00:17:00,58.5,50.2,29.93,NW,314,12.5,12.5,74,0.00,,---,0.00,VWS V14.01,2013-09-03 04:17:00,
2013-09-03 00:22:00,58.1,50.2,29.93,North,350,10.7,11.6,75,0.00,,---,0.00,VWS V14.01,2013-09-03 04:22:00,
2013-09-03 00:27:00,58.1,50.6,29.93,NW,320,8.1,15.2,76,0.00,,---,0.00,VWS V14.01,2013-09-03 04:27:00,
2013-09-03 00:32:00,57.9,50.8,29.93,NW,319,10.7,10.7,77,0.00,,---,0.00,VWS V14.01,2013-09-03 04:32:00,
2013-09-03 00:37:00,57.9,50.8,29.93,NW,312,8.1,10.7,77,0.00,,---,0.00,VWS V14.01,2013-09-03 04:37:00,
2013-09-03 00:42:00,57.7,50.9,29.93,WNW,302,0.0,0.0,78,0.00,,---,0.00,VWS V14.01,2013-09-03 04:42:00,
2013-09-03 00:47:00,57.7,50.6,29.93,NNW,335,0.0,6.3,77,0.00,,---,0.00,VWS V14.01,2013-09-03 04:47:00,
2013-09-03 00:52:00,57.9,51.1,29.93,NW,316,6.3,9.8,78,0.00,,---,0.00,VWS V14.01,2013-09-03 04:52:00,
2013-09-03 00:57:00,57.9,51.1,29.93,NW,312,9.8,10.7,78,0.00,,---,0.00,VWS V14.01,2013-09-03 04:57:00,
2013-09-03 01:02:00,57.9,51.1,29.93,NW,321,0.0,5.4,78,0.00,,---,0.00,VWS V14.01,2013-09-03 05:02:00,
2013-09-03 01:08:00,57.9,51.1,29.93,NNW,340,8.9,9.8,78,0.00,,---,0.00,VWS V14.01,2013-09-03 05:08:00,
2013-09-03 01:13:00,57.9,51.1,29.93,NW,324,12.5,16.1,78,0.00,,---,0.00,VWS V14.01,2013-09-03 05:13:00,
2013-09-03 01:18:00,57.9,51.1,29.93,NW,324,11.6,12.5,78,0.00,,---,0.00,VWS V14.01,2013-09-03 05:18:00,
2013-09-03 01:23:00,57.9,51.1,29.93,NNW,331,5.4,7.2,78,0.00,,---,0.00,VWS V14.01,2013-09-03 05:23:00,
2013-09-03 01:28:00,57.9,51.1,29.93,NNW,340,6.3,8.1,78,0.00,,---,0.00,VWS V14.01,2013-09-03 05:28:00,
2013-09-03 01:33:00,57.9,51.1,29.93,West,280,0.0,10.7,78,0.00,,---,0.00,VWS V14.01,2013-09-03 05:33:00,
2013-09-03 01:38:00,57.9,51.1,29.93,North,356,7.2,7.2,78,0.00,,---,0.00,VWS V14.01,2013-09-03 05:38:00,
2013-09-03 01:43:00,57.9,51.1,29.93,NW,320,7.2,17.4,78,0.00,,---,0.00,VWS V14.01,2013-09-03 05:43:00,
2013-09-03 01:48:00,57.9,51.1,29.93,WSW,249,7.2,7.2,78,0.00,,---,0.00,VWS V14.01,2013-09-03 05:48:00,
2013-09-03 01:53:00,57.9,50.8,29.93,NNW,329,9.8,9.8,77,0.00,,---,0.00,VWS V14.01,2013-09-03 05:53:00,
2013-09-03 01:58:00,57.9,50.8,29.93,NNE,14,4.5,4.5,77,0.00,,---,0.00,VWS V14.01,2013-09-03 05:58:00,
2013-09-03 02:03:00,57.7,50.6,29.96,WNW,301,7.2,16.1,77,0.00,,---,0.00,VWS V14.01,2013-09-03 06:03:00,
2013-09-03 02:08:00,57.7,50.6,29.96,WNW,292,7.2,11.6,77,0.00,,---,0.00,VWS V14.01,2013-09-03 06:08:00,
2013-09-03 02:13:00,57.7,50.6,29.96,WNW,301,9.8,15.2,77,0.00,,---,0.00,VWS V14.01,2013-09-03 06:13:00,
2013-09-03 02:18:00,57.6,50.4,29.93,WNW,295,6.3,10.7,77,0.00,,---,0.00,VWS V14.01,2013-09-03 06:18:00,
2013-09-03 02:23:00,57.6,50.4,29.93,NNW,336,9.8,9.8,77,0.00,,---,0.00,VWS V14.01,2013-09-03 06:23:00,
2013-09-03 02:28:00,57.6,50.4,29.93,NW,316,0.0,4.5,77,0.00,,---,0.00,VWS V14.01,2013-09-03 06:28:00,
2013-09-03 02:33:00,57.6,50.4,29.96,NNE,21,5.4,14.3,77,0.00,,---,0.00,VWS V14.01,2013-09-03 06:33:00,
2013-09-03 02:39:00,57.6,50.4,29.96,NW,314,16.6,16.6,77,0.00,,---,0.00,VWS V14.01,2013-09-03 06:39:00,
2013-09-03 02:44:00,57.4,50.2,29.96,NNE,30,9.8,11.6,77,0.00,,---,0.00,VWS V14.01,2013-09-03 06:44:00,
2013-09-03 02:49:00,57.2,50.1,29.96,NW,313,9.8,11.6,77,0.00,,---,0.00,VWS V14.01,2013-09-03 06:49:00,
2013-09-03 02:54:00,57.2,50.1,29.96,NW,317,6.3,7.2,77,0.00,,---,0.00,VWS V14.01,2013-09-03 06:54:00,
2013-09-03 02:59:00,57.2,50.1,29.96,NNW,338,16.1,16.1,77,0.00,,---,0.00,VWS V14.01,2013-09-03 06:59:00,
2013-09-03 03:04:00,57.2,50.4,29.96,NNW,327,0.0,7.2,78,0.00,,---,0.00,VWS V14.01,2013-09-03 07:04:00,
2013-09-03 03:09:00,57.2,50.4,29.96,NNW,327,7.2,7.2,78,0.00,,---,0.00,VWS V14.01,2013-09-03 07:09:00,
2013-09-03 03:14:00,57.2,50.4,29.96,WNW,286,0.0,0.0,78,0.00,,---,0.00,VWS V14.01,2013-09-03 07:14:00,
2013-09-03 03:19:00,57.2,50.4,29.93,NW,317,6.3,6.3,78,0.00,,---,0.00,VWS V14.01,2013-09-03 07:19:00,
2013-09-03 03:24:00,57.0,50.6,29.93,NW,312,0.0,0.0,79,0.00,,---,0.00,VWS V14.01,2013-09-03 07:24:00,
2013-09-03 03:29:00,57.2,50.4,29.93,NW,308,5.4,5.4,78,0.00,,---,0.00,VWS V14.01,2013-09-03 07:29:00,
2013-09-03 03:34:00,57.2,50.4,29.96,North,3,6.3,6.3,78,0.00,,---,0.00,VWS V14.01,2013-09-03 07:34:00,
2013-09-03 03:39:00,57.2,50.4,29.96,NNW,330,7.2,7.2,78,0.00,,---,0.00,VWS V14.01,2013-09-03 07:39:00,
2013-09-03 03:44:00,57.2,50.4,29.96,NW,312,4.5,7.2,78,0.00,,---,0.00,VWS V14.01,2013-09-03 07:44:00,
2013-09-03 03:49:00,57.2,50.1,29.93,WNW,289,0.0,4.5,77,0.00,,---,0.00,VWS V14.01,2013-09-03 07:49:00,
2013-09-03 03:54:00,57.2,50.1,29.93,NNW,336,0.0,5.4,77,0.00,,---,0.00,VWS V14.01,2013-09-03 07:54:00,
2013-09-03 03:59:00,57.2,50.1,29.93,WNW,302,7.2,7.2,77,0.00,,---,0.00,VWS V14.01,2013-09-03 07:59:00,
2013-09-03 04:04:00,57.4,50.2,29.96,NNW,332,8.1,8.1,77,0.00,,---,0.00,VWS V14.01,2013-09-03 08:04:00,
2013-09-03 04:09:00,57.4,50.2,29.96,WNW,291,8.1,9.8,77,0.00,,---,0.00,VWS V14.01,2013-09-03 08:09:00,
2013-09-03 04:14:00,57.4,50.2,29.96,NW,325,6.3,6.3,77,0.00,,---,0.00,VWS V14.01,2013-09-03 08:14:00,
2013-09-03 04:19:00,57.4,49.9,29.96,North,350,9.8,9.8,76,0.00,,---,0.00,VWS V14.01,2013-09-03 08:19:00,
2013-09-03 04:24:00,57.4,49.9,29.96,NW,310,0.0,8.1,76,0.00,,---,0.00,VWS V14.01,2013-09-03 08:24:00,
2013-09-03 04:29:00,57.4,49.9,29.96,NW,317,0.0,5.4,76,0.00,,---,0.00,VWS V14.01,2013-09-03 08:29:00,
2013-09-03 04:35:00,57.4,49.9,29.96,WNW,290,7.2,7.2,76,0.00,,---,0.00,VWS V14.01,2013-09-03 08:35:00,
2013-09-03 04:40:00,57.4,49.9,29.96,WNW,302,5.4,5.4,76,0.00,,---,0.00,VWS V14.01,2013-09-03 08:40:00,
2013-09-03 04:45:00,57.4,49.9,29.96,North,354,12.5,12.5,76,0.00,,---,0.00,VWS V14.01,2013-09-03 08:45:00,
2013-09-03 04:50:00,57.4,49.9,29.96,NNW,330,12.5,15.2,76,0.00,,---,0.00,VWS V14.01,2013-09-03 08:50:00,
2013-09-03 04:55:00,57.4,49.9,29.96,North,355,8.1,8.1,76,0.00,,---,0.00,VWS V14.01,2013-09-03 08:55:00,
2013-09-03 05:00:00,57.4,49.9,29.96,North,358,10.7,10.7,76,0.00,,---,0.00,VWS V14.01,2013-09-03 09:00:00,
2013-09-03 05:05:00,57.4,49.9,29.96,NNW,332,8.9,8.9,76,0.00,,---,0.00,VWS V14.01,2013-09-03 09:05:00,
2013-09-03 05:10:00,57.4,49.9,29.96,NW,316,6.3,8.1,76,0.00,,---,0.00,VWS V14.01,2013-09-03 09:10:00,
2013-09-03 05:15:00,57.4,49.9,29.96,NW,305,7.2,7.2,76,0.00,,---,0.00,VWS V14.01,2013-09-03 09:15:00,
2013-09-03 05:20:00,57.4,49.9,29.96,NNW,340,8.1,11.6,76,0.00,,---,0.00,VWS V14.01,2013-09-03 09:20:00,
2013-09-03 05:25:00,57.4,49.9,29.96,WNW,302,15.2,15.2,76,0.00,,---,0.00,VWS V14.01,2013-09-03 09:25:00,
2013-09-03 05:30:00,57.4,49.9,29.96,WNW,295,4.5,10.7,76,0.00,,---,0.00,VWS V14.01,2013-09-03 09:30:00,
2013-09-03 05:35:00,57.4,49.9,29.96,West,266,11.6,11.6,76,0.00,,---,0.00,VWS V14.01,2013-09-03 09:35:00,
2013-09-03 05:40:00,57.4,49.9,29.96,NW,322,8.1,8.1,76,0.00,,---,0.00,VWS V14.01,2013-09-03 09:40:00,
2013-09-03 05:45:00,57.4,49.9,29.96,NW,311,5.4,5.4,76,0.00,,---,0.00,VWS V14.01,2013-09-03 09:45:00,
2013-09-03 05:50:00,57.2,49.7,29.96,NW,315,8.1,9.8,76,0.00,,---,0.00,VWS V14.01,2013-09-03 09:50:00,
2013-09-03 05:55:00,57.2,49.7,29.96,NNW,340,6.3,9.8,76,0.00,,---,0.00,VWS V14.01,2013-09-03 09:55:00,
2013-09-03 06:00:00,57.2,49.7,29.96,WNW,302,0.0,9.8,76,0.00,,---,0.00,VWS V14.01,2013-09-03 10:00:00,
2013-09-03 06:05:00,57.2,49.7,29.96,WSW,250,5.4,5.4,76,0.00,,---,0.00,VWS V14.01,2013-09-03 10:05:00,
2013-09-03 06:10:00,57.2,50.1,29.96,NNW,341,9.8,10.7,77,0.00,,---,0.00,VWS V14.01,2013-09-03 10:10:00,
2013-09-03 06:16:00,57.2,50.1,29.96,NW,305,6.3,9.8,77,0.00,,---,0.00,VWS V14.01,2013-09-03 10:16:00,
2013-09-03 06:21:00,57.2,50.1,29.96,NNW,337,0.0,5.4,77,0.00,,---,0.00,VWS V14.01,2013-09-03 10:21:00,
2013-09-03 06:26:00,57.2,50.1,29.96,NW,308,5.4,5.4,77,0.00,,---,0.00,VWS V14.01,2013-09-03 10:26:00,
2013-09-03 06:31:00,57.2,50.4,29.96,NW,311,4.5,5.4,78,0.00,,---,0.00,VWS V14.01,2013-09-03 10:31:00,
2013-09-03 06:36:00,57.2,50.4,29.96,NNW,345,6.3,6.3,78,0.00,,---,0.00,VWS V14.01,2013-09-03 10:36:00,
2013-09-03 06:41:00,57.2,50.4,29.96,NW,316,10.7,10.7,78,0.00,,---,0.00,VWS V14.01,2013-09-03 10:41:00,
2013-09-03 06:46:00,57.2,50.4,29.99,NW,325,7.2,7.2,78,0.00,,---,0.00,VWS V14.01,2013-09-03 10:46:00,
2013-09-03 06:51:00,57.2,50.4,29.99,NNW,340,8.1,8.1,78,0.00,,---,0.00,VWS V14.01,2013-09-03 10:51:00,
2013-09-03 06:56:00,57.2,50.4,29.99,NNW,347,7.2,8.1,78,0.00,,---,0.00,VWS V14.01,2013-09-03 10:56:00,
2013-09-03 07:01:00,57.2,50.8,29.99,NNW,333,12.5,12.5,79,0.00,,---,0.00,VWS V14.01,2013-09-03 11:01:00,
2013-09-03 07:06:00,57.2,50.8,29.99,NW,320,4.5,8.1,79,0.00,,---,0.00,VWS V14.01,2013-09-03 11:06:00,
2013-09-03 07:11:00,57.2,50.8,29.99,WNW,296,0.0,0.0,79,0.00,,---,0.00,VWS V14.01,2013-09-03 11:11:00,
2013-09-03 07:16:00,57.2,50.8,29.99,NNW,328,0.0,0.0,79,0.00,,---,0.00,VWS V14.01,2013-09-03 11:16:00,
2013-09-03 07:21:00,57.2,50.8,29.99,NNW,340,7.2,7.2,79,0.00,,---,0.00,VWS V14.01,2013-09-03 11:21:00,
2013-09-03 07:26:00,57.2,50.8,29.99,NW,309,6.3,9.8,79,0.00,,---,0.00,VWS V14.01,2013-09-03 11:26:00,
2013-09-03 07:31:00,57.2,50.8,29.99,NNW,334,6.3,6.3,79,0.00,,---,0.00,VWS V14.01,2013-09-03 11:31:00,
2013-09-03 07:36:00,57.2,50.8,29.99,NNE,32,0.0,0.0,79,0.00,,---,0.00,VWS V14.01,2013-09-03 11:36:00,
2013-09-03 07:41:00,57.4,50.9,29.99,NW,315,6.3,8.1,79,0.00,,---,0.00,VWS V14.01,2013-09-03 11:41:00,
2013-09-03 07:46:00,57.4,51.3,29.99,NNW,336,7.2,7.2,80,0.00,,---,0.00,VWS V14.01,2013-09-03 11:46:00,
2013-09-03 07:51:00,57.4,51.3,29.99,NW,321,5.4,5.4,80,0.00,,---,0.00,VWS V14.01,2013-09-03 11:51:00,
2013-09-03 07:57:00,57.6,51.5,29.99,NNW,332,12.5,12.5,80,0.00,,---,0.00,VWS V14.01,2013-09-03 11:57:00,
2013-09-03 08:02:00,57.6,51.5,29.99,West,279,5.4,8.1,80,0.00,,---,0.00,VWS V14.01,2013-09-03 12:02:00,
2013-09-03 08:07:00,57.6,51.5,29.99,NW,306,7.2,9.8,80,0.00,,---,0.00,VWS V14.01,2013-09-03 12:07:00,
2013-09-03 08:12:00,57.6,51.5,29.99,NW,320,0.0,12.5,80,0.00,,---,0.00,VWS V14.01,2013-09-03 12:12:00,
2013-09-03 08:17:00,57.7,51.6,29.99,West,269,11.6,11.6,80,0.00,,---,0.00,VWS V14.01,2013-09-03 12:17:00,
2013-09-03 08:22:00,57.7,51.6,29.99,NW,317,5.4,7.2,80,0.00,,---,0.00,VWS V14.01,2013-09-03 12:22:00,
2013-09-03 08:27:00,57.9,51.8,29.99,West,264,0.0,7.2,80,0.00,,---,0.00,VWS V14.01,2013-09-03 12:27:00,
2013-09-03 08:32:00,57.9,51.8,30.02,NE,40,4.5,7.2,80,0.00,,---,0.00,VWS V14.01,2013-09-03 12:32:00,
2013-09-03 08:37:00,57.9,51.8,30.02,NW,308,5.4,7.2,80,0.00,,---,0.00,VWS V14.01,2013-09-03 12:37:00,
2013-09-03 08:42:00,57.9,51.5,30.02,NNW,347,8.1,8.1,79,0.00,,---,0.00,VWS V14.01,2013-09-03 12:42:00,
2013-09-03 08:47:00,58.1,51.6,30.02,WNW,282,8.1,16.1,79,0.00,,---,0.00,VWS V14.01,2013-09-03 12:47:00,
2013-09-03 08:52:00,58.1,51.6,30.02,NW,314,5.4,8.1,79,0.00,,---,0.00,VWS V14.01,2013-09-03 12:52:00,
2013-09-03 08:57:00,58.3,51.8,30.02,NW,321,7.2,11.6,79,0.00,,---,0.00,VWS V14.01,2013-09-03 12:57:00,
2013-09-03 09:02:00,58.3,51.8,30.02,NW,326,6.3,11.6,79,0.00,,---,0.00,VWS V14.01,2013-09-03 13:02:00,
2013-09-03 09:07:00,58.3,51.8,30.02,WSW,246,6.3,7.2,79,0.00,,---,0.00,VWS V14.01,2013-09-03 13:07:00,
2013-09-03 09:12:00,58.3,51.8,30.02,NW,307,9.8,9.8,79,0.00,,---,0.00,VWS V14.01,2013-09-03 13:12:00,
2013-09-03 09:17:00,58.3,51.8,30.02,WNW,300,7.2,7.2,79,0.00,,---,0.00,VWS V14.01,2013-09-03 13:17:00,
2013-09-03 09:22:00,58.3,51.8,30.02,NNE,14,11.6,15.2,79,0.00,,---,0.00,VWS V14.01,2013-09-03 13:22:00,
2013-09-03 09:27:00,58.5,52.0,30.02,NNW,345,4.5,12.5,79,0.00,,---,0.00,VWS V14.01,2013-09-03 13:27:00,
2013-09-03 09:33:00,58.5,52.0,30.02,NW,315,8.9,11.6,79,0.00,,---,0.00,VWS V14.01,2013-09-03 13:33:00,
2013-09-03 09:38:00,58.5,52.0,30.02,North,352,12.5,12.5,79,0.00,,---,0.00,VWS V14.01,2013-09-03 13:38:00,
2013-09-03 09:43:00,58.6,52.2,30.02,NW,324,5.4,5.4,79,0.00,,---,0.00,VWS V14.01,2013-09-03 13:43:00,
2013-09-03 09:48:00,58.8,52.3,30.02,North,1,6.3,11.6,79,0.00,,---,0.00,VWS V14.01,2013-09-03 13:48:00,
2013-09-03 09:53:00,59.0,52.2,30.02,NW,321,6.3,6.3,78,0.00,,---,0.00,VWS V14.01,2013-09-03 13:53:00,
2013-09-03 09:58:00,59.2,52.3,30.02,North,357,5.4,6.3,78,0.00,,---,0.00,VWS V14.01,2013-09-03 13:58:00,
2013-09-03 10:03:00,59.4,52.5,30.02,West,275,10.7,10.7,78,0.00,,---,0.00,VWS V14.01,2013-09-03 14:03:00,
2013-09-03 10:08:00,59.5,52.7,30.02,North,357,4.5,5.4,78,0.00,,---,0.00,VWS V14.01,2013-09-03 14:08:00,
2013-09-03 10:13:00,59.7,52.9,30.02,West,274,9.8,14.3,78,0.00,,---,0.00,VWS V14.01,2013-09-03 14:13:00,
2013-09-03 10:18:00,59.9,52.7,30.02,NW,311,0.0,0.0,77,0.00,,---,0.00,VWS V14.01,2013-09-03 14:18:00,
2013-09-03 10:23:00,60.3,53.0,30.02,NW,308,8.1,8.1,77,0.00,,---,0.00,VWS V14.01,2013-09-03 14:23:00,
2013-09-03 10:28:00,60.4,53.2,30.02,NNW,347,7.2,10.7,77,0.00,,---,0.00,VWS V14.01,2013-09-03 14:28:00,
2013-09-03 10:33:00,60.8,53.2,30.02,NNW,336,8.1,16.6,76,0.00,,---,0.00,VWS V14.01,2013-09-03 14:33:00,
2013-09-03 10:38:00,61.0,52.7,30.02,NW,318,6.3,9.8,74,0.00,,---,0.00,VWS V14.01,2013-09-03 14:38:00,
2013-09-03 10:43:00,61.2,52.5,30.02,WNW,299,12.5,17.4,73,0.00,,---,0.00,VWS V14.01,2013-09-03 14:43:00,
2013-09-03 10:48:00,61.2,52.1,30.02,NNW,342,14.3,14.3,72,0.00,,---,0.00,VWS V14.01,2013-09-03 14:48:00,
2013-09-03 10:53:00,61.3,52.2,30.02,WNW,292,10.7,10.7,72,0.00,,---,0.00,VWS V14.01,2013-09-03 14:53:00,
2013-09-03 10:58:00,61.7,52.6,30.02,NW,324,16.1,16.1,72,0.00,,---,0.00,VWS V14.01,2013-09-03 14:58:00,
2013-09-03 11:03:00,61.7,52.2,30.02,West,269,7.2,9.8,71,0.00,,---,0.00,VWS V14.01,2013-09-03 15:03:00,
2013-09-03 11:08:00,61.7,52.2,30.02,NW,318,5.4,11.6,71,0.00,,---,0.00,VWS V14.01,2013-09-03 15:08:00,
2013-09-03 11:14:00,61.9,52.0,30.02,WNW,302,8.1,8.9,70,0.00,,---,0.00,VWS V14.01,2013-09-03 15:14:00,
2013-09-03 11:19:00,62.1,52.2,30.02,NNW,348,5.4,10.7,70,0.00,,---,0.00,VWS V14.01,2013-09-03 15:19:00,
2013-09-03 11:24:00,62.4,51.7,30.02,NNE,14,5.4,20.1,68,0.00,,---,0.00,VWS V14.01,2013-09-03 15:24:00,
2013-09-03 11:29:00,62.6,51.9,30.02,North,11,13.4,13.4,68,0.00,,---,0.00,VWS V14.01,2013-09-03 15:29:00,
2013-09-03 11:34:00,63.1,51.2,30.02,NW,309,6.3,9.8,65,0.00,,---,0.00,VWS V14.01,2013-09-03 15:34:00,
2013-09-03 11:39:00,63.3,51.4,30.02,NW,319,15.2,15.2,65,0.00,,---,0.00,VWS V14.01,2013-09-03 15:39:00,
2013-09-03 11:44:00,63.5,51.1,30.02,NNW,335,5.4,6.3,64,0.00,,---,0.00,VWS V14.01,2013-09-03 15:44:00,
2013-09-03 11:49:00,63.7,50.9,30.02,NW,306,10.7,17.4,63,0.00,,---,0.00,VWS V14.01,2013-09-03 15:49:00,
2013-09-03 11:54:00,64.0,50.8,30.02,North,349,6.3,8.1,62,0.00,,---,0.00,VWS V14.01,2013-09-03 15:54:00,
2013-09-03 11:59:00,64.2,50.5,30.02,NNE,18,12.5,12.5,61,0.00,,---,0.00,VWS V14.01,2013-09-03 15:59:00,
2013-09-03 12:04:00,64.2,50.5,30.05,NW,325,7.2,8.1,61,0.00,,---,0.00,VWS V14.01,2013-09-03 16:04:00,
2013-09-03 12:09:00,64.6,50.4,30.05,NNE,25,8.1,8.1,60,0.00,,---,0.00,VWS V14.01,2013-09-03 16:09:00,
2013-09-03 12:14:00,64.8,51.0,30.05,NNW,328,6.3,6.3,61,0.00,,---,0.00,VWS V14.01,2013-09-03 16:14:00,
2013-09-03 12:19:00,65.1,50.9,30.02,NW,311,6.3,9.8,60,0.00,,---,0.00,VWS V14.01,2013-09-03 16:19:00,
2013-09-03 12:24:00,65.1,50.9,30.02,NW,312,5.4,5.4,60,0.00,,---,0.00,VWS V14.01,2013-09-03 16:24:00,
2013-09-03 12:29:00,65.7,51.9,30.02,WNW,285,6.3,8.1,61,0.00,,---,0.00,VWS V14.01,2013-09-03 16:29:00,
2013-09-03 12:34:00,65.8,51.1,30.02,WNW,293,7.2,12.5,59,0.00,,---,0.00,VWS V14.01,2013-09-03 16:34:00,
2013-09-03 12:39:00,65.8,50.2,30.02,NNW,331,7.2,11.6,57,0.00,,---,0.00,VWS V14.01,2013-09-03 16:39:00,
2013-09-03 12:44:00,66.0,50.4,30.02,WNW,301,6.3,12.5,57,0.00,,---,0.00,VWS V14.01,2013-09-03 16:44:00,
2013-09-03 12:49:00,66.2,50.1,30.02,North,352,10.7,12.5,56,0.00,,---,0.00,VWS V14.01,2013-09-03 16:49:00,
2013-09-03 12:54:00,66.2,50.1,30.02,NW,307,8.1,8.1,56,0.00,,---,0.00,VWS V14.01,2013-09-03 16:54:00,
2013-09-03 12:59:00,66.2,50.1,30.02,NNW,339,11.6,11.6,56,0.00,,---,0.00,VWS V14.01,2013-09-03 16:59:00,
2013-09-03 13:04:00,66.4,50.2,30.02,North,2,11.6,23.7,56,0.00,,---,0.00,VWS V14.01,2013-09-03 17:04:00,
2013-09-03 13:09:00,66.4,50.2,30.02,NW,320,7.2,7.2,56,0.00,,---,0.00,VWS V14.01,2013-09-03 17:09:00,
2013-09-03 13:14:00,66.7,50.6,30.02,NW,314,7.2,11.6,56,0.00,,---,0.00,VWS V14.01,2013-09-03 17:14:00,
2013-09-03 13:19:00,67.1,50.4,30.02,NW,315,8.1,13.4,55,0.00,,---,0.00,VWS V14.01,2013-09-03 17:19:00,
2013-09-03 13:25:00,67.5,50.8,30.02,NNW,333,6.3,6.3,55,0.00,,---,0.00,VWS V14.01,2013-09-03 17:25:00,
2013-09-03 13:30:00,67.8,50.6,30.02,NW,319,7.2,8.1,54,0.00,,---,0.00,VWS V14.01,2013-09-03 17:30:00,
2013-09-03 13:35:00,68.2,50.9,30.02,WNW,302,10.7,10.7,54,0.00,,---,0.00,VWS V14.01,2013-09-03 17:35:00,
2013-09-03 13:40:00,68.5,50.2,30.02,West,269,8.1,8.1,52,0.00,,---,0.00,VWS V14.01,2013-09-03 17:40:00,
2013-09-03 13:45:00,68.5,50.2,30.02,WSW,242,0.0,6.3,52,0.00,,---,0.00,VWS V14.01,2013-09-03 17:45:00,
2013-09-03 13:50:00,68.7,50.9,30.02,NW,304,10.7,10.7,53,0.00,,---,0.00,VWS V14.01,2013-09-03 17:50:00,
2013-09-03 13:55:00,68.9,50.6,30.02,SW,235,6.3,6.3,52,0.00,,---,0.00,VWS V14.01,2013-09-03 17:55:00,
2013-09-03 14:00:00,68.9,49.5,30.02,NNW,344,7.2,12.5,50,0.00,,---,0.00,VWS V14.01,2013-09-03 18:00:00,
2013-09-03 14:05:00,69.1,50.2,30.02,North,2,10.7,10.7,51,0.00,,---,0.00,VWS V14.01,2013-09-03 18:05:00,
2013-09-03 14:10:00,69.3,50.4,30.02,North,353,16.6,16.6,51,0.00,,---,0.00,VWS V14.01,2013-09-03 18:10:00,
2013-09-03 14:15:00,69.4,50.5,30.02,North,355,11.6,11.6,51,0.00,,---,0.00,VWS V14.01,2013-09-03 18:15:00,
2013-09-03 14:20:00,69.6,50.7,30.02,NW,311,7.2,7.2,51,0.00,,---,0.00,VWS V14.01,2013-09-03 18:20:00,
2013-09-03 14:25:00,70.0,50.5,30.02,NW,326,10.7,10.7,50,0.00,,---,0.00,VWS V14.01,2013-09-03 18:25:00,
2013-09-03 14:30:00,70.5,50.5,30.02,NE,38,5.4,8.9,49,0.00,,---,0.00,VWS V14.01,2013-09-03 18:30:00,
2013-09-03 14:35:00,70.5,50.5,30.02,ENE,75,9.8,10.7,49,0.00,,---,0.00,VWS V14.01,2013-09-03 18:35:00,
2013-09-03 14:40:00,70.5,50.5,30.02,West,270,7.2,9.8,49,0.00,,---,0.00,VWS V14.01,2013-09-03 18:40:00,
2013-09-03 14:45:00,70.7,50.1,30.02,NW,311,12.5,12.5,48,0.00,,---,0.00,VWS V14.01,2013-09-03 18:45:00,
2013-09-03 14:50:00,70.9,50.2,30.02,NW,314,8.1,12.5,48,0.00,,---,0.00,VWS V14.01,2013-09-03 18:50:00,
2013-09-03 14:55:00,70.9,49.7,30.02,West,271,5.4,5.4,47,0.00,,---,0.00,VWS V14.01,2013-09-03 18:55:00,
2013-09-03 15:00:00,71.1,50.4,30.02,NNW,337,7.2,7.2,48,0.00,,---,0.00,VWS V14.01,2013-09-03 19:00:00,
2013-09-03 15:06:00,71.1,50.4,30.02,North,360,18.3,18.3,48,0.00,,---,0.00,VWS V14.01,2013-09-03 19:06:00,
2013-09-03 15:11:00,71.1,50.4,30.02,NW,308,8.1,16.6,48,0.00,,---,0.00,VWS V14.01,2013-09-03 19:11:00,
2013-09-03 15:16:00,71.2,50.0,30.02,NNW,339,11.6,11.6,47,0.00,,---,0.00,VWS V14.01,2013-09-03 19:16:00,
2013-09-03 15:21:00,71.4,50.2,30.02,NNE,31,8.1,8.1,47,0.00,,---,0.00,VWS V14.01,2013-09-03 19:21:00,
2013-09-03 15:26:00,71.6,49.8,30.02,West,279,9.8,11.6,46,0.00,,---,0.00,VWS V14.01,2013-09-03 19:26:00,
2013-09-03 15:31:00,71.6,49.8,29.99,North,351,14.3,14.3,46,0.00,,---,0.00,VWS V14.01,2013-09-03 19:31:00,
2013-09-03 15:36:00,71.8,50.5,29.99,NNW,331,13.4,13.4,47,0.00,,---,0.00,VWS V14.01,2013-09-03 19:36:00,
2013-09-03 15:41:00,71.8,49.9,29.99,NW,308,7.2,11.6,46,0.00,,---,0.00,VWS V14.01,2013-09-03 19:41:00,
2013-09-03 15:46:00,71.8,49.9,29.99,NW,322,11.6,11.6,46,0.00,,---,0.00,VWS V14.01,2013-09-03 19:46:00,
2013-09-03 15:51:00,71.4,50.2,29.99,WNW,291,5.4,6.3,47,0.00,,---,0.00,VWS V14.01,2013-09-03 19:51:00,
2013-09-03 15:56:00,71.4,50.2,29.99,NW,305,7.2,10.7,47,0.00,,---,0.00,VWS V14.01,2013-09-03 19:56:00,
2013-09-03 16:01:00,71.2,50.0,29.99,NW,322,6.3,10.7,47,0.00,,---,0.00,VWS V14.01,2013-09-03 20:01:00,
2013-09-03 16:06:00,71.2,49.4,29.99,WSW,244,0.0,0.0,46,0.00,,---,0.00,VWS V14.01,2013-09-03 20:06:00,
2013-09-03 16:11:00,71.2,50.0,29.99,NNW,342,8.1,8.1,47,0.00,,---,0.00,VWS V14.01,2013-09-03 20:11:00,
2013-09-03 16:16:00,71.4,50.2,29.99,West,264,8.1,8.1,47,0.00,,---,0.00,VWS V14.01,2013-09-03 20:16:00,
2013-09-03 16:21:00,71.4,50.2,29.99,NW,306,19.2,19.2,47,0.00,,---,0.00,VWS V14.01,2013-09-03 20:21:00,
2013-09-03 16:26:00,71.6,49.8,29.99,NW,313,5.4,12.5,46,0.00,,---,0.00,VWS V14.01,2013-09-03 20:26:00,
2013-09-03 16:31:00,71.6,49.8,29.99,NW,307,5.4,6.3,46,0.00,,---,0.00,VWS V14.01,2013-09-03 20:31:00,
2013-09-03 16:36:00,71.4,49.0,29.99,NW,325,7.2,9.8,45,0.00,,---,0.00,VWS V14.01,2013-09-03 20:36:00,
2013-09-03 16:42:00,71.4,49.6,29.99,NW,326,12.5,12.5,46,0.00,,---,0.00,VWS V14.01,2013-09-03 20:42:00,
2013-09-03 16:47:00,71.6,49.8,29.99,West,266,7.2,7.2,46,0.00,,---,0.00,VWS V14.01,2013-09-03 20:47:00,
2013-09-03 16:52:00,71.6,49.2,29.99,West,281,6.3,6.3,45,0.00,,---,0.00,VWS V14.01,2013-09-03 20:52:00,
2013-09-03 16:57:00,71.6,49.2,29.99,North,11,8.1,8.1,45,0.00,,---,0.00,VWS V14.01,2013-09-03 20:57:00,
2013-09-03 17:02:00,71.8,49.3,29.99,NNW,338,10.7,15.2,45,0.00,,---,0.00,VWS V14.01,2013-09-03 21:02:00,
2013-09-03 17:07:00,71.8,48.7,29.99,North,355,6.3,9.8,44,0.00,,---,0.00,VWS V14.01,2013-09-03 21:07:00,
2013-09-03 17:12:00,71.6,48.6,29.99,WSW,252,8.1,8.1,44,0.00,,---,0.00,VWS V14.01,2013-09-03 21:12:00,
2013-09-03 17:17:00,71.6,49.2,29.99,NNE,21,7.2,7.2,45,0.00,,---,0.00,VWS V14.01,2013-09-03 21:17:00,
2013-09-03 17:22:00,71.6,49.2,29.99,NW,313,11.6,11.6,45,0.00,,---,0.00,VWS V14.01,2013-09-03 21:22:00,
2013-09-03 17:27:00,71.6,49.2,29.99,SW,234,6.3,9.8,45,0.00,,---,0.00,VWS V14.01,2013-09-03 21:27:00,
2013-09-03 17:32:00,71.8,49.3,29.99,NW,324,8.1,12.5,45,0.00,,---,0.00,VWS V14.01,2013-09-03 21:32:00,
2013-09-03 17:37:00,71.8,49.3,29.99,NNW,338,10.7,12.5,45,0.00,,---,0.00,VWS V14.01,2013-09-03 21:37:00,
2013-09-03 17:42:00,71.6,49.2,29.99,North,3,11.6,11.6,45,0.00,,---,0.00,VWS V14.01,2013-09-03 21:42:00,
2013-09-03 17:47:00,71.6,49.2,29.99,NNW,334,13.4,13.4,45,0.00,,---,0.00,VWS V14.01,2013-09-03 21:47:00,
2013-09-03 17:52:00,71.4,49.0,29.99,WNW,282,9.8,9.8,45,0.00,,---,0.00,VWS V14.01,2013-09-03 21:52:00,
2013-09-03 17:57:00,71.4,49.0,29.99,North,349,8.1,15.2,45,0.00,,---,0.00,VWS V14.01,2013-09-03 21:57:00,
2013-09-03 18:02:00,71.2,48.8,29.99,NNW,343,5.4,11.6,45,0.00,,---,0.00,VWS V14.01,2013-09-03 22:02:00,
2013-09-03 18:08:00,71.2,48.8,29.99,North,351,5.4,5.4,45,0.00,,---,0.00,VWS V14.01,2013-09-03 22:08:00,
2013-09-03 18:13:00,71.1,49.3,29.99,NW,316,4.5,5.4,46,0.00,,---,0.00,VWS V14.01,2013-09-03 22:13:00,
2013-09-03 18:18:00,71.1,48.7,29.99,NW,321,7.2,10.7,45,0.00,,---,0.00,VWS V14.01,2013-09-03 22:18:00,
2013-09-03 18:23:00,71.1,48.7,29.99,NW,320,5.4,5.4,45,0.00,,---,0.00,VWS V14.01,2013-09-03 22:23:00,
2013-09-03 18:28:00,70.9,48.5,29.99,NNW,335,12.5,12.5,45,0.00,,---,0.00,VWS V14.01,2013-09-03 22:28:00,
2013-09-03 18:33:00,70.9,48.5,29.99,NNW,332,11.6,11.6,45,0.00,,---,0.00,VWS V14.01,2013-09-03 22:33:00,
2013-09-03 18:38:00,70.7,48.9,29.99,NW,313,5.4,5.4,46,0.00,,---,0.00,VWS V14.01,2013-09-03 22:38:00,
2013-09-03 18:43:00,70.7,48.9,29.99,NW,323,5.4,8.1,46,0.00,,---,0.00,VWS V14.01,2013-09-03 22:43:00,
2013-09-03 18:48:00,70.5,48.2,29.99,North,357,4.5,11.6,45,0.00,,---,0.00,VWS V14.01,2013-09-03 22:48:00,
2013-09-03 18:53:00,70.3,48.0,29.99,WNW,295,8.1,8.1,45,0.00,,---,0.00,VWS V14.01,2013-09-03 22:53:00,
2013-09-03 18:58:00,70.3,48.0,29.99,NNE,14,8.1,11.6,45,0.00,,---,0.00,VWS V14.01,2013-09-03 22:58:00,
2013-09-03 19:03:00,70.2,48.4,29.99,NNW,348,0.0,7.2,46,0.00,,---,0.00,VWS V14.01,2013-09-03 23:03:00,
2013-09-03 19:08:00,70.0,48.3,29.99,North,358,0.0,0.0,46,0.00,,---,0.00,VWS V14.01,2013-09-03 23:08:00,
2013-09-03 19:13:00,70.0,48.3,29.99,NW,322,5.4,8.1,46,0.00,,---,0.00,VWS V14.01,2013-09-03 23:13:00,
2013-09-03 19:18:00,69.8,48.1,29.99,NNW,334,5.4,6.3,46,0.00,,---,0.00,VWS V14.01,2013-09-03 23:18:00,
2013-09-03 19:24:00,69.6,48.5,29.99,NNW,344,5.4,6.3,47,0.00,,---,0.00,VWS V14.01,2013-09-03 23:24:00,
2013-09-03 19:29:00,69.4,48.3,29.99,NNW,336,0.0,0.0,47,0.00,,---,0.00,VWS V14.01,2013-09-03 23:29:00,
2013-09-03 19:34:00,69.3,48.2,30.02,NNW,336,0.0,0.0,47,0.00,,---,0.00,VWS V14.01,2013-09-03 23:34:00,
2013-09-03 19:39:00,69.1,48.6,30.02,NNW,336,0.0,0.0,48,0.00,,---,0.00,VWS V14.01,2013-09-03 23:39:00,
2013-09-03 19:44:00,68.5,48.1,30.02,NNW,336,0.0,0.0,48,0.00,,---,0.00,VWS V14.01,2013-09-03 23:44:00,
2013-09-03 19:49:00,68.2,48.3,29.99,NNW,336,0.0,0.0,49,0.00,,---,0.00,VWS V14.01,2013-09-03 23:49:00,
2013-09-03 19:54:00,67.6,48.4,29.99,NNW,336,0.0,0.0,50,0.00,,---,0.00,VWS V14.01,2013-09-03 23:54:00,
2013-09-03 19:59:00,67.1,48.4,29.99,NNW,336,0.0,0.0,51,0.00,,---,0.00,VWS V14.01,2013-09-03 23:59:00,
2013-09-03 20:04:00,66.9,48.7,29.99,NNW,336,0.0,0.0,52,0.00,,---,0.00,VWS V14.01,2013-09-04 00:04:00,
2013-09-03 20:09:00,66.6,48.9,29.99,NNW,336,0.0,0.0,53,0.00,,---,0.00,VWS V14.01,2013-09-04 00:09:00,
2013-09-03 20:14:00,66.2,48.6,29.99,NNW,336,0.0,0.0,53,0.00,,---,0.00,VWS V14.01,2013-09-04 00:14:00,
2013-09-03 20:19:00,66.0,48.9,30.02,NNW,336,0.0,0.0,54,0.00,,---,0.00,VWS V14.01,2013-09-04 00:19:00,
2013-09-03 20:24:00,65.8,49.2,30.02,NNW,336,0.0,0.0,55,0.00,,---,0.00,VWS V14.01,2013-09-04 00:24:00,
2013-09-03 20:29:00,65.5,48.9,30.02,NNW,336,0.0,0.0,55,0.00,,---,0.00,VWS V14.01,2013-09-04 00:29:00,
2013-09-03 20:34:00,64.9,48.9,30.02,NNW,336,0.0,0.0,56,0.00,,---,0.00,VWS V14.01,2013-09-04 00:34:00,
2013-09-03 20:39:00,64.6,49.0,30.02,NNW,336,0.0,0.0,57,0.00,,---,0.00,VWS V14.01,2013-09-04 00:39:00,
2013-09-03 20:44:00,64.2,49.2,30.02,NNW,336,0.0,0.0,58,0.00,,---,0.00,VWS V14.01,2013-09-04 00:44:00,
2013-09-03 20:49:00,63.9,49.3,30.02,NNW,336,0.0,0.0,59,0.00,,---,0.00,VWS V14.01,2013-09-04 00:49:00,
2013-09-03 20:54:00,63.5,48.9,30.02,NNW,336,0.0,0.0,59,0.00,,---,0.00,VWS V14.01,2013-09-04 00:54:00,
2013-09-03 21:00:00,63.3,49.2,30.02,NNW,336,0.0,0.0,60,0.00,,---,0.00,VWS V14.01,2013-09-04 01:00:00,
2013-09-03 21:05:00,63.1,49.5,30.02,NNW,336,0.0,0.0,61,0.00,,---,0.00,VWS V14.01,2013-09-04 01:05:00,
2013-09-03 21:10:00,63.0,49.3,30.02,NNW,336,0.0,0.0,61,0.00,,---,0.00,VWS V14.01,2013-09-04 01:10:00,
2013-09-03 21:15:00,62.8,49.6,30.02,NNW,336,0.0,0.0,62,0.00,,---,0.00,VWS V14.01,2013-09-04 01:15:00,
2013-09-03 21:20:00,62.6,49.4,30.02,NNW,336,0.0,0.0,62,0.00,,---,0.00,VWS V14.01,2013-09-04 01:20:00,
2013-09-03 21:25:00,62.4,49.7,30.02,NNW,336,0.0,0.0,63,0.00,,---,0.00,VWS V14.01,2013-09-04 01:25:00,
2013-09-03 21:30:00,62.2,49.9,30.02,NNW,336,0.0,0.0,64,0.00,,---,0.00,VWS V14.01,2013-09-04 01:30:00,
2013-09-03 21:35:00,62.2,49.9,30.02,NNW,336,0.0,0.0,64,0.00,,---,0.00,VWS V14.01,2013-09-04 01:35:00,
2013-09-03 21:40:00,62.1,50.2,30.02,NNW,336,0.0,0.0,65,0.00,,---,0.00,VWS V14.01,2013-09-04 01:40:00,
2013-09-03 21:45:00,61.9,50.0,30.02,NNW,336,0.0,0.0,65,0.00,,---,0.00,VWS V14.01,2013-09-04 01:45:00,
2013-09-03 21:50:00,61.9,50.0,30.02,NNW,336,0.0,0.0,65,0.00,,---,0.00,VWS V14.01,2013-09-04 01:50:00,
2013-09-03 21:55:00,61.9,50.4,30.02,NNW,336,0.0,0.0,66,0.00,,---,0.00,VWS V14.01,2013-09-04 01:55:00,
2013-09-03 22:00:00,61.7,50.2,30.05,NNW,336,0.0,0.0,66,0.00,,---,0.00,VWS V14.01,2013-09-04 02:00:00,
2013-09-03 22:05:00,61.7,50.2,30.05,NNW,336,0.0,0.0,66,0.00,,---,0.00,VWS V14.01,2013-09-04 02:05:00,
2013-09-03 22:11:00,61.7,50.2,30.05,WSW,240,0.0,0.0,66,0.00,,---,0.00,VWS V14.01,2013-09-04 02:11:00,
2013-09-03 22:16:00,61.5,50.5,30.02,West,274,5.4,5.4,67,0.00,,---,0.00,VWS V14.01,2013-09-04 02:16:00,
2013-09-03 22:21:00,61.5,50.5,30.02,West,273,0.0,0.0,67,0.00,,---,0.00,VWS V14.01,2013-09-04 02:21:00,
2013-09-03 22:26:00,61.5,50.5,30.02,West,273,0.0,0.0,67,0.00,,---,0.00,VWS V14.01,2013-09-04 02:26:00,
2013-09-03 22:31:00,61.5,50.5,30.02,West,273,0.0,0.0,67,0.00,,---,0.00,VWS V14.01,2013-09-04 02:31:00,
2013-09-03 22:36:00,61.3,50.7,30.02,West,273,0.0,0.0,68,0.00,,---,0.00,VWS V14.01,2013-09-04 02:36:00,
2013-09-03 22:41:00,61.3,50.7,30.02,West,280,0.0,0.0,68,0.00,,---,0.00,VWS V14.01,2013-09-04 02:41:00,
2013-09-03 22:46:00,61.5,50.9,30.02,NW,316,0.0,6.3,68,0.00,,---,0.00,VWS V14.01,2013-09-04 02:46:00,
2013-09-03 22:51:00,61.5,51.3,30.02,NW,305,0.0,0.0,69,0.00,,---,0.00,VWS V14.01,2013-09-04 02:51:00,
2013-09-03 22:56:00,61.7,51.4,30.02,West,278,0.0,5.4,69,0.00,,---,0.00,VWS V14.01,2013-09-04 02:56:00,
2013-09-03 23:01:00,61.7,51.4,30.05,NW,310,0.0,0.0,69,0.00,,---,0.00,VWS V14.01,2013-09-04 03:01:00,
2013-09-03 23:06:00,61.9,51.6,30.05,West,275,0.0,6.3,69,0.00,,---,0.00,VWS V14.01,2013-09-04 03:06:00,
2013-09-03 23:11:00,61.9,51.6,30.05,WNW,282,0.0,0.0,69,0.00,,---,0.00,VWS V14.01,2013-09-04 03:11:00,
2013-09-03 23:16:00,61.9,52.0,30.05,NW,312,5.4,6.3,70,0.00,,---,0.00,VWS V14.01,2013-09-04 03:16:00,
2013-09-03 23:21:00,61.9,52.0,30.05,NW,309,0.0,0.0,70,0.00,,---,0.00,VWS V14.01,2013-09-04 03:21:00,
2013-09-03 23:26:00,61.9,52.0,30.05,WNW,303,0.0,6.3,70,0.00,,---,0.00,VWS V14.01,2013-09-04 03:26:00,
2013-09-03 23:32:00,61.7,51.8,30.05,West,280,11.6,11.6,70,0.00,,---,0.00,VWS V14.01,2013-09-04 03:32:00,
2013-09-03 23:37:00,61.7,51.8,30.05,WNW,287,0.0,0.0,70,0.00,,---,0.00,VWS V14.01,2013-09-04 03:37:00,
2013-09-03 23:42:00,61.7,52.2,30.05,North,350,4.5,4.5,71,0.00,,---,0.00,VWS V14.01,2013-09-04 03:42:00,
2013-09-03 23:47:00,61.7,52.2,30.05,WNW,286,0.0,0.0,71,0.00,,---,0.00,VWS V14.01,2013-09-04 03:47:00,
2013-09-03 23:52:00,61.7,52.6,30.05,NW,310,5.4,5.4,72,0.00,,---,0.00,VWS V14.01,2013-09-04 03:52:00,
2013-09-03 23:57:00,61.5,52.0,30.05,WNW,285,6.3,7.2,71,0.00,,---,0.00,VWS V14.01,2013-09-04 03:57:00,